Lewistown, Montana
Current Conditions -  °F | °C
As of 9:54 PM on Friday 28 Nov 2014 (Local Time) from KLWT Reporting Station
Haze Haze  
Wind Chill: -23°   Ceiling: 500
Heat Index: -14°   Visibility: 5mi
Dew Point: -16°   Wind: 13mph
Humidity: 87%   Direction: 280°W
Pressure: 29.46"   Gusts: NA
Location:  47.07°N, 109.42°W
Report Text: KLWT 290454Z AUTO 28011KT 5SM BR OVC005 M14/M16 A2946 RMK AO2 SNE45 SLP000 P0000 T11391156
Loading
Personal Weather Stations






























Interactive Weather Map New forecast layout! Learn more

10-Day Weather Forecast

Advertisements
Track Severe Weather on mobile